sensor_id;sensor_type;location;lat;lon;timestamp;temperature;humidity
9049;DHT22;4559;47.252;9.592;2022-12-29T00:01:29;5.10;99.90
9049;DHT22;4559;47.252;9.592;2022-12-29T00:03:55;5.20;99.90
9049;DHT22;4559;47.252;9.592;2022-12-29T00:06:21;5.30;99.90
9049;DHT22;4559;47.252;9.592;2022-12-29T00:08:46;5.30;99.90
9049;DHT22;4559;47.252;9.592;2022-12-29T00:11:16;5.40;99.90
9049;DHT22;4559;47.252;9.592;2022-12-29T00:13:43;5.40;99.90
9049;DHT22;4559;47.252;9.592;2022-12-29T00:16:27;5.30;99.90
9049;DHT22;4559;47.252;9.592;2022-12-29T00:18:53;5.40;99.90
9049;DHT22;4559;47.252;9.592;2022-12-29T00:21:21;5.40;99.90
9049;DHT22;4559;47.252;9.592;2022-12-29T00:24:06;5.30;99.90
9049;DHT22;4559;47.252;9.592;2022-12-29T00:29:45;5.50;99.90
9049;DHT22;4559;47.252;9.592;2022-12-29T00:32:29;5.50;99.90
9049;DHT22;4559;47.252;9.592;2022-12-29T00:37:49;5.40;99.90
9049;DHT22;4559;47.252;9.592;2022-12-29T00:40:38;5.30;99.90
9049;DHT22;4559;47.252;9.592;2022-12-29T00:43:23;5.20;99.90
9049;DHT22;4559;47.252;9.592;2022-12-29T00:46:07;5.20;99.90
9049;DHT22;4559;47.252;9.592;2022-12-29T00:48:32;5.10;99.90
9049;DHT22;4559;47.252;9.592;2022-12-29T00:51:16;5.10;99.90
9049;DHT22;4559;47.252;9.592;2022-12-29T00:53:42;5.00;99.90
9049;DHT22;4559;47.252;9.592;2022-12-29T00:56:08;4.90;99.90
9049;DHT22;4559;47.252;9.592;2022-12-29T00:58:33;4.90;99.90
9049;DHT22;4559;47.252;9.592;2022-12-29T01:01:03;4.90;99.90
9049;DHT22;4559;47.252;9.592;2022-12-29T01:03:29;4.90;99.90
9049;DHT22;4559;47.252;9.592;2022-12-29T01:05:55;4.90;99.90
9049;DHT22;4559;47.252;9.592;2022-12-29T01:08:20;4.80;99.90
9049;DHT22;4559;47.252;9.592;2022-12-29T01:10:46;4.70;99.90
9049;DHT22;4559;47.252;9.592;2022-12-29T01:13:11;4.70;99.90
9049;DHT22;4559;47.252;9.592;2022-12-29T01:15:37;4.70;99.90
9049;DHT22;4559;47.252;9.592;2022-12-29T01:18:02;4.60;99.90
9049;DHT22;4559;47.252;9.592;2022-12-29T01:20:28;4.60;99.90
9049;DHT22;4559;47.252;9.592;2022-12-29T01:22:54;4.60;99.90
9049;DHT22;4559;47.252;9.592;2022-12-29T01:25:20;4.60;99.90
9049;DHT22;4559;47.252;9.592;2022-12-29T01:27:45;4.60;99.90
9049;DHT22;4559;47.252;9.592;2022-12-29T01:30:11;4.40;99.90
9049;DHT22;4559;47.252;9.592;2022-12-29T01:32:37;4.40;99.90
9049;DHT22;4559;47.252;9.592;2022-12-29T01:35:03;4.40;99.90
9049;DHT22;4559;47.252;9.592;2022-12-29T01:37:28;4.30;99.90
9049;DHT22;4559;47.252;9.592;2022-12-29T01:39:54;4.30;99.90
9049;DHT22;4559;47.252;9.592;2022-12-29T01:42:23;4.30;99.90
9049;DHT22;4559;47.252;9.592;2022-12-29T01:44:55;4.30;99.90
9049;DHT22;4559;47.252;9.592;2022-12-29T01:47:33;4.30;99.90
9049;DHT22;4559;47.252;9.592;2022-12-29T01:50:13;4.20;99.90
9049;DHT22;4559;47.252;9.592;2022-12-29T01:52:46;4.20;99.90
9049;DHT22;4559;47.252;9.592;2022-12-29T01:55:15;4.20;99.90
9049;DHT22;4559;47.252;9.592;2022-12-29T01:57:44;4.10;99.90
9049;DHT22;4559;47.252;9.592;2022-12-29T02:00:13;4.10;99.90
9049;DHT22;4559;47.252;9.592;2022-12-29T02:02:45;4.10;99.90
9049;DHT22;4559;47.252;9.592;2022-12-29T02:05:24;4.10;99.90
9049;DHT22;4559;47.252;9.592;2022-12-29T02:07:53;4.10;99.90
9049;DHT22;4559;47.252;9.592;2022-12-29T02:10:24;4.10;99.90
9049;DHT22;4559;47.252;9.592;2022-12-29T02:12:51;4.10;99.90
9049;DHT22;4559;47.252;9.592;2022-12-29T02:15:27;4.10;99.90
9049;DHT22;4559;47.252;9.592;2022-12-29T02:32:19;4.20;99.90
9049;DHT22;4559;47.252;9.592;2022-12-29T02:35:02;4.20;99.90
9049;DHT22;4559;47.252;9.592;2022-12-29T02:37:42;4.20;99.90
9049;DHT22;4559;47.252;9.592;2022-12-29T02:40:39;4.20;99.90
9049;DHT22;4559;47.252;9.592;2022-12-29T02:49:01;4.20;99.90
9049;DHT22;4559;47.252;9.592;2022-12-29T02:51:32;4.20;99.90
9049;DHT22;4559;47.252;9.592;2022-12-29T02:54:01;4.20;99.90
9049;DHT22;4559;47.252;9.592;2022-12-29T02:56:45;4.20;99.90
9049;DHT22;4559;47.252;9.592;2022-12-29T02:59:11;4.30;99.90
9049;DHT22;4559;47.252;9.592;2022-12-29T03:01:53;4.30;99.90
9049;DHT22;4559;47.252;9.592;2022-12-29T03:07:37;4.30;99.90
9049;DHT22;4559;47.252;9.592;2022-12-29T03:15:50;4.30;99.90
9049;DHT22;4559;47.252;9.592;2022-12-29T03:18:36;4.30;99.90
9049;DHT22;4559;47.252;9.592;2022-12-29T03:21:07;4.30;99.90
9049;DHT22;4559;47.252;9.592;2022-12-29T03:23:36;4.30;99.90
9049;DHT22;4559;47.252;9.592;2022-12-29T03:26:08;4.20;99.90
9049;DHT22;4559;47.252;9.592;2022-12-29T03:28:40;4.20;99.90
9049;DHT22;4559;47.252;9.592;2022-12-29T03:31:09;4.30;99.90
9049;DHT22;4559;47.252;9.592;2022-12-29T03:33:38;4.30;99.90
9049;DHT22;4559;47.252;9.592;2022-12-29T03:36:07;4.30;99.90
9049;DHT22;4559;47.252;9.592;2022-12-29T03:38:46;4.30;99.90
9049;DHT22;4559;47.252;9.592;2022-12-29T03:41:17;4.30;99.90
9049;DHT22;4559;47.252;9.592;2022-12-29T03:43:45;4.30;99.90
9049;DHT22;4559;47.252;9.592;2022-12-29T03:46:11;4.30;99.90
9049;DHT22;4559;47.252;9.592;2022-12-29T03:48:37;4.30;99.90
9049;DHT22;4559;47.252;9.592;2022-12-29T03:51:02;4.30;99.90
9049;DHT22;4559;47.252;9.592;2022-12-29T03:53:28;4.30;99.90
9049;DHT22;4559;47.252;9.592;2022-12-29T03:55:53;4.40;99.90
9049;DHT22;4559;47.252;9.592;2022-12-29T03:58:19;4.30;99.90
9049;DHT22;4559;47.252;9.592;2022-12-29T04:00:44;4.30;99.90
9049;DHT22;4559;47.252;9.592;2022-12-29T04:03:10;4.30;99.90
9049;DHT22;4559;47.252;9.592;2022-12-29T04:05:36;4.30;99.90
9049;DHT22;4559;47.252;9.592;2022-12-29T04:08:01;4.30;99.90
9049;DHT22;4559;47.252;9.592;2022-12-29T04:10:27;4.30;99.90
9049;DHT22;4559;47.252;9.592;2022-12-29T04:12:52;4.40;99.90
9049;DHT22;4559;47.252;9.592;2022-12-29T04:15:18;4.40;99.90
9049;DHT22;4559;47.252;9.592;2022-12-29T04:17:43;4.30;99.90
9049;DHT22;4559;47.252;9.592;2022-12-29T04:20:09;4.40;99.90
9049;DHT22;4559;47.252;9.592;2022-12-29T04:23:05;4.40;99.90
9049;DHT22;4559;47.252;9.592;2022-12-29T04:25:32;4.40;99.90
9049;DHT22;4559;47.252;9.592;2022-12-29T04:27:58;4.30;99.90
9049;DHT22;4559;47.252;9.592;2022-12-29T04:30:23;4.40;99.90
9049;DHT22;4559;47.252;9.592;2022-12-29T04:32:49;4.40;99.90
9049;DHT22;4559;47.252;9.592;2022-12-29T04:35:15;4.50;99.90
9049;DHT22;4559;47.252;9.592;2022-12-29T04:37:41;4.50;99.90
9049;DHT22;4559;47.252;9.592;2022-12-29T04:40:07;4.50;99.90
9049;DHT22;4559;47.252;9.592;2022-12-29T04:42:33;4.50;99.90
9049;DHT22;4559;47.252;9.592;2022-12-29T04:44:58;4.60;99.90
9049;DHT22;4559;47.252;9.592;2022-12-29T04:47:24;4.60;99.90
9049;DHT22;4559;47.252;9.592;2022-12-29T04:49:49;4.70;99.90
9049;DHT22;4559;47.252;9.592;2022-12-29T04:52:15;4.70;99.90
9049;DHT22;4559;47.252;9.592;2022-12-29T04:54:41;4.70;99.90
9049;DHT22;4559;47.252;9.592;2022-12-29T04:57:06;4.70;99.90
9049;DHT22;4559;47.252;9.592;2022-12-29T04:59:32;4.70;99.90
9049;DHT22;4559;47.252;9.592;2022-12-29T05:01:57;4.70;99.90
9049;DHT22;4559;47.252;9.592;2022-12-29T05:04:23;4.60;99.90
9049;DHT22;4559;47.252;9.592;2022-12-29T05:06:48;4.60;99.90
9049;DHT22;4559;47.252;9.592;2022-12-29T05:09:14;4.70;99.90
9049;DHT22;4559;47.252;9.592;2022-12-29T05:11:39;4.70;99.90
9049;DHT22;4559;47.252;9.592;2022-12-29T05:14:05;4.70;99.90
9049;DHT22;4559;47.252;9.592;2022-12-29T05:16:31;4.60;99.90
9049;DHT22;4559;47.252;9.592;2022-12-29T05:18:56;4.60;99.90
9049;DHT22;4559;47.252;9.592;2022-12-29T05:21:22;4.70;99.90
9049;DHT22;4559;47.252;9.592;2022-12-29T05:23:47;4.60;99.90
9049;DHT22;4559;47.252;9.592;2022-12-29T05:26:13;4.60;99.90
9049;DHT22;4559;47.252;9.592;2022-12-29T05:28:38;4.70;99.90
9049;DHT22;4559;47.252;9.592;2022-12-29T05:31:04;4.70;99.90
9049;DHT22;4559;47.252;9.592;2022-12-29T05:33:30;4.70;99.90
9049;DHT22;4559;47.252;9.592;2022-12-29T05:35:55;4.70;99.90
9049;DHT22;4559;47.252;9.592;2022-12-29T05:38:21;4.70;99.90
9049;DHT22;4559;47.252;9.592;2022-12-29T05:40:46;4.70;99.90
9049;DHT22;4559;47.252;9.592;2022-12-29T05:43:12;4.50;99.90
9049;DHT22;4559;47.252;9.592;2022-12-29T05:45:38;4.60;99.90
9049;DHT22;4559;47.252;9.592;2022-12-29T05:48:03;4.60;99.90
9049;DHT22;4559;47.252;9.592;2022-12-29T05:50:29;4.60;99.90
9049;DHT22;4559;47.252;9.592;2022-12-29T05:52:55;4.60;99.90
9049;DHT22;4559;47.252;9.592;2022-12-29T05:55:20;4.70;99.90
9049;DHT22;4559;47.252;9.592;2022-12-29T05:57:46;4.70;99.90
9049;DHT22;4559;47.252;9.592;2022-12-29T06:00:12;4.70;99.90
9049;DHT22;4559;47.252;9.592;2022-12-29T06:02:38;4.70;99.90
9049;DHT22;4559;47.252;9.592;2022-12-29T06:05:04;4.70;99.90
9049;DHT22;4559;47.252;9.592;2022-12-29T06:07:30;4.70;99.90
9049;DHT22;4559;47.252;9.592;2022-12-29T06:09:56;4.70;99.90
9049;DHT22;4559;47.252;9.592;2022-12-29T06:12:22;4.70;99.90
9049;DHT22;4559;47.252;9.592;2022-12-29T06:14:47;4.70;99.90
9049;DHT22;4559;47.252;9.592;2022-12-29T06:17:13;4.70;99.90
9049;DHT22;4559;47.252;9.592;2022-12-29T06:19:38;4.70;99.90
9049;DHT22;4559;47.252;9.592;2022-12-29T06:22:04;4.80;99.90
9049;DHT22;4559;47.252;9.592;2022-12-29T06:24:30;4.80;99.90
9049;DHT22;4559;47.252;9.592;2022-12-29T06:26:55;4.70;99.90
9049;DHT22;4559;47.252;9.592;2022-12-29T06:29:21;4.70;99.90
9049;DHT22;4559;47.252;9.592;2022-12-29T06:31:47;4.80;99.90
9049;DHT22;4559;47.252;9.592;2022-12-29T06:34:14;4.70;99.90
9049;DHT22;4559;47.252;9.592;2022-12-29T06:36:39;4.70;99.90
9049;DHT22;4559;47.252;9.592;2022-12-29T06:39:05;4.70;99.90
9049;DHT22;4559;47.252;9.592;2022-12-29T06:41:31;4.70;99.90
9049;DHT22;4559;47.252;9.592;2022-12-29T06:43:57;4.70;99.90
9049;DHT22;4559;47.252;9.592;2022-12-29T06:46:23;4.70;99.90
9049;DHT22;4559;47.252;9.592;2022-12-29T06:48:48;4.70;99.90
9049;DHT22;4559;47.252;9.592;2022-12-29T06:51:14;4.70;99.90
9049;DHT22;4559;47.252;9.592;2022-12-29T06:53:39;4.70;99.90
9049;DHT22;4559;47.252;9.592;2022-12-29T06:56:05;4.70;99.90
9049;DHT22;4559;47.252;9.592;2022-12-29T06:58:31;4.70;99.90
9049;DHT22;4559;47.252;9.592;2022-12-29T07:00:57;4.60;99.90
9049;DHT22;4559;47.252;9.592;2022-12-29T07:03:23;4.60;99.90
9049;DHT22;4559;47.252;9.592;2022-12-29T07:05:48;4.60;99.90
9049;DHT22;4559;47.252;9.592;2022-12-29T07:08:14;4.60;99.90
9049;DHT22;4559;47.252;9.592;2022-12-29T07:11:19;4.60;99.90
9049;DHT22;4559;47.252;9.592;2022-12-29T07:13:51;4.60;99.90
9049;DHT22;4559;47.252;9.592;2022-12-29T07:16:17;4.60;99.90
9049;DHT22;4559;47.252;9.592;2022-12-29T07:18:42;4.60;99.90
9049;DHT22;4559;47.252;9.592;2022-12-29T07:21:08;4.70;99.90
9049;DHT22;4559;47.252;9.592;2022-12-29T07:23:34;4.70;99.90
9049;DHT22;4559;47.252;9.592;2022-12-29T07:26:04;4.60;99.90
9049;DHT22;4559;47.252;9.592;2022-12-29T07:28:30;4.60;99.90
9049;DHT22;4559;47.252;9.592;2022-12-29T07:30:58;4.70;99.90
9049;DHT22;4559;47.252;9.592;2022-12-29T07:33:24;4.70;99.90
9049;DHT22;4559;47.252;9.592;2022-12-29T07:35:49;4.80;99.90
9049;DHT22;4559;47.252;9.592;2022-12-29T07:38:29;4.80;99.90
9049;DHT22;4559;47.252;9.592;2022-12-29T07:40:58;4.80;99.90
9049;DHT22;4559;47.252;9.592;2022-12-29T07:43:24;4.80;99.90
9049;DHT22;4559;47.252;9.592;2022-12-29T07:45:50;4.90;99.90
9049;DHT22;4559;47.252;9.592;2022-12-29T07:48:15;4.90;99.90
9049;DHT22;4559;47.252;9.592;2022-12-29T07:50:41;5.00;99.90
9049;DHT22;4559;47.252;9.592;2022-12-29T07:53:06;5.10;99.90
9049;DHT22;4559;47.252;9.592;2022-12-29T07:55:32;5.10;99.90
9049;DHT22;4559;47.252;9.592;2022-12-29T07:57:57;5.10;99.90
9049;DHT22;4559;47.252;9.592;2022-12-29T08:00:23;5.10;99.90
9049;DHT22;4559;47.252;9.592;2022-12-29T08:02:49;5.10;99.90
9049;DHT22;4559;47.252;9.592;2022-12-29T08:05:15;5.20;99.90
9049;DHT22;4559;47.252;9.592;2022-12-29T08:07:43;5.20;99.90
9049;DHT22;4559;47.252;9.592;2022-12-29T08:10:10;5.30;99.90
9049;DHT22;4559;47.252;9.592;2022-12-29T08:12:37;5.30;99.90
9049;DHT22;4559;47.252;9.592;2022-12-29T08:15:03;5.40;99.90
9049;DHT22;4559;47.252;9.592;2022-12-29T08:17:29;5.40;99.90
9049;DHT22;4559;47.252;9.592;2022-12-29T08:19:55;5.50;99.90
9049;DHT22;4559;47.252;9.592;2022-12-29T08:22:20;5.60;99.90
9049;DHT22;4559;47.252;9.592;2022-12-29T08:24:46;5.60;99.90
9049;DHT22;4559;47.252;9.592;2022-12-29T08:27:11;5.60;99.90
9049;DHT22;4559;47.252;9.592;2022-12-29T08:29:37;5.70;99.90
9049;DHT22;4559;47.252;9.592;2022-12-29T08:32:03;5.70;99.90
9049;DHT22;4559;47.252;9.592;2022-12-29T08:34:30;5.70;99.90
9049;DHT22;4559;47.252;9.592;2022-12-29T08:36:56;5.70;99.90
9049;DHT22;4559;47.252;9.592;2022-12-29T08:39:22;5.80;99.90
9049;DHT22;4559;47.252;9.592;2022-12-29T08:41:47;5.90;99.90
9049;DHT22;4559;47.252;9.592;2022-12-29T08:44:13;6.00;99.90
9049;DHT22;4559;47.252;9.592;2022-12-29T08:46:38;6.00;99.90
9049;DHT22;4559;47.252;9.592;2022-12-29T08:49:04;6.10;99.90
9049;DHT22;4559;47.252;9.592;2022-12-29T08:51:30;6.10;99.90
9049;DHT22;4559;47.252;9.592;2022-12-29T08:53:55;6.20;99.90
9049;DHT22;4559;47.252;9.592;2022-12-29T08:56:21;6.20;99.90
9049;DHT22;4559;47.252;9.592;2022-12-29T08:58:49;6.30;99.90
9049;DHT22;4559;47.252;9.592;2022-12-29T09:01:15;6.30;99.90
9049;DHT22;4559;47.252;9.592;2022-12-29T09:03:41;6.40;99.90
9049;DHT22;4559;47.252;9.592;2022-12-29T09:06:06;6.50;99.90
9049;DHT22;4559;47.252;9.592;2022-12-29T09:08:32;6.60;99.90
9049;DHT22;4559;47.252;9.592;2022-12-29T09:11:18;6.60;99.90
9049;DHT22;4559;47.252;9.592;2022-12-29T09:13:44;6.60;99.90
9049;DHT22;4559;47.252;9.592;2022-12-29T09:16:10;6.70;99.90
9049;DHT22;4559;47.252;9.592;2022-12-29T09:18:36;6.80;99.90
9049;DHT22;4559;47.252;9.592;2022-12-29T09:21:04;6.80;99.90
9049;DHT22;4559;47.252;9.592;2022-12-29T09:23:30;6.90;99.90
9049;DHT22;4559;47.252;9.592;2022-12-29T09:25:56;7.00;99.90
9049;DHT22;4559;47.252;9.592;2022-12-29T09:28:22;7.10;99.90
9049;DHT22;4559;47.252;9.592;2022-12-29T09:30:49;7.20;99.90
9049;DHT22;4559;47.252;9.592;2022-12-29T09:33:15;7.30;99.90
9049;DHT22;4559;47.252;9.592;2022-12-29T09:35:48;7.40;99.90
9049;DHT22;4559;47.252;9.592;2022-12-29T09:38:15;7.50;99.90
9049;DHT22;4559;47.252;9.592;2022-12-29T09:40:41;7.70;99.90
9049;DHT22;4559;47.252;9.592;2022-12-29T09:48:25;8.20;99.90
9049;DHT22;4559;47.252;9.592;2022-12-29T09:50:59;8.30;99.90
9049;DHT22;4559;47.252;9.592;2022-12-29T09:53:31;8.50;99.90
9049;DHT22;4559;47.252;9.592;2022-12-29T09:56:00;8.60;99.30
9049;DHT22;4559;47.252;9.592;2022-12-29T09:58:33;8.80;99.40
9049;DHT22;4559;47.252;9.592;2022-12-29T10:03:55;9.10;99.00
9049;DHT22;4559;47.252;9.592;2022-12-29T10:09:17;9.30;96.60
9049;DHT22;4559;47.252;9.592;2022-12-29T10:17:46;9.80;97.00
9049;DHT22;4559;47.252;9.592;2022-12-29T10:20:38;9.90;96.50
9049;DHT22;4559;47.252;9.592;2022-12-29T10:23:17;10.00;95.80
9049;DHT22;4559;47.252;9.592;2022-12-29T10:25:46;10.00;96.00
9049;DHT22;4559;47.252;9.592;2022-12-29T10:28:20;10.10;95.80
9049;DHT22;4559;47.252;9.592;2022-12-29T10:30:48;10.10;96.00
9049;DHT22;4559;47.252;9.592;2022-12-29T10:33:23;10.10;96.50
9049;DHT22;4559;47.252;9.592;2022-12-29T10:35:51;10.20;96.30
9049;DHT22;4559;47.252;9.592;2022-12-29T10:38:37;10.30;96.20
9049;DHT22;4559;47.252;9.592;2022-12-29T10:43:46;10.40;96.10
9049;DHT22;4559;47.252;9.592;2022-12-29T10:46:22;10.50;96.20
9049;DHT22;4559;47.252;9.592;2022-12-29T10:48:48;10.40;95.70
9049;DHT22;4559;47.252;9.592;2022-12-29T10:51:38;10.50;95.90
9049;DHT22;4559;47.252;9.592;2022-12-29T10:56:51;10.50;95.30
9049;DHT22;4559;47.252;9.592;2022-12-29T10:59:27;10.60;95.50
9049;DHT22;4559;47.252;9.592;2022-12-29T11:04:57;10.70;93.50
9049;DHT22;4559;47.252;9.592;2022-12-29T11:07:28;10.80;91.80
9049;DHT22;4559;47.252;9.592;2022-12-29T11:09:55;10.90;91.40
9049;DHT22;4559;47.252;9.592;2022-12-29T11:12:40;11.00;91.60
9049;DHT22;4559;47.252;9.592;2022-12-29T11:17:49;11.30;91.40
9049;DHT22;4559;47.252;9.592;2022-12-29T11:20:32;11.40;91.70
9049;DHT22;4559;47.252;9.592;2022-12-29T11:22:58;11.60;91.50
9049;DHT22;4559;47.252;9.592;2022-12-29T11:25:25;11.70;90.40
9049;DHT22;4559;47.252;9.592;2022-12-29T11:28:14;11.80;88.40
9049;DHT22;4559;47.252;9.592;2022-12-29T11:30:40;11.90;85.90
9049;DHT22;4559;47.252;9.592;2022-12-29T11:33:07;12.10;84.80
9049;DHT22;4559;47.252;9.592;2022-12-29T11:35:36;12.10;82.50
9049;DHT22;4559;47.252;9.592;2022-12-29T11:38:04;12.30;81.20
9049;DHT22;4559;47.252;9.592;2022-12-29T11:40:30;12.40;81.10
9049;DHT22;4559;47.252;9.592;2022-12-29T11:43:02;12.50;81.80
9049;DHT22;4559;47.252;9.592;2022-12-29T11:45:34;12.70;82.40
9049;DHT22;4559;47.252;9.592;2022-12-29T11:48:15;12.90;81.10
9049;DHT22;4559;47.252;9.592;2022-12-29T11:50:42;12.90;80.40
9049;DHT22;4559;47.252;9.592;2022-12-29T11:53:20;13.00;80.50
9049;DHT22;4559;47.252;9.592;2022-12-29T11:56:01;13.10;79.60
9049;DHT22;4559;47.252;9.592;2022-12-29T11:58:33;13.10;80.20
9049;DHT22;4559;47.252;9.592;2022-12-29T12:01:37;13.10;78.30
9049;DHT22;4559;47.252;9.592;2022-12-29T12:04:26;13.10;78.10
9049;DHT22;4559;47.252;9.592;2022-12-29T12:07:17;13.10;78.10
9049;DHT22;4559;47.252;9.592;2022-12-29T12:09:53;13.10;77.50
9049;DHT22;4559;47.252;9.592;2022-12-29T12:14:57;13.10;74.90
9049;DHT22;4559;47.252;9.592;2022-12-29T12:17:55;13.20;76.00
9049;DHT22;4559;47.252;9.592;2022-12-29T12:20:31;13.10;74.40
9049;DHT22;4559;47.252;9.592;2022-12-29T12:26:09;13.10;74.50
9049;DHT22;4559;47.252;9.592;2022-12-29T12:28:45;13.00;74.20
9049;DHT22;4559;47.252;9.592;2022-12-29T12:34:00;13.00;74.10
9049;DHT22;4559;47.252;9.592;2022-12-29T12:42:12;13.00;72.80
9049;DHT22;4559;47.252;9.592;2022-12-29T12:50:38;12.90;73.80
9049;DHT22;4559;47.252;9.592;2022-12-29T13:12:16;12.70;75.60
9049;DHT22;4559;47.252;9.592;2022-12-29T13:14:52;12.70;73.50
9049;DHT22;4559;47.252;9.592;2022-12-29T13:17:45;12.70;73.80
9049;DHT22;4559;47.252;9.592;2022-12-29T13:20:33;12.70;73.90
9049;DHT22;4559;47.252;9.592;2022-12-29T13:25:50;12.80;74.40
9049;DHT22;4559;47.252;9.592;2022-12-29T13:28:28;12.80;74.90
9049;DHT22;4559;47.252;9.592;2022-12-29T13:31:22;12.80;74.90
9049;DHT22;4559;47.252;9.592;2022-12-29T13:34:03;12.80;72.20
9049;DHT22;4559;47.252;9.592;2022-12-29T13:36:35;12.80;74.20
9049;DHT22;4559;47.252;9.592;2022-12-29T13:41:57;12.70;76.50
9049;DHT22;4559;47.252;9.592;2022-12-29T13:44:38;12.60;76.10
9049;DHT22;4559;47.252;9.592;2022-12-29T13:47:36;12.60;77.30
9049;DHT22;4559;47.252;9.592;2022-12-29T13:50:04;12.50;77.00
9049;DHT22;4559;47.252;9.592;2022-12-29T13:53:23;12.50;77.60
9049;DHT22;4559;47.252;9.592;2022-12-29T13:55:39;12.40;78.70
9049;DHT22;4559;47.252;9.592;2022-12-29T13:58:27;12.30;79.50
9049;DHT22;4559;47.252;9.592;2022-12-29T14:01:35;12.30;79.80
9049;DHT22;4559;47.252;9.592;2022-12-29T14:04:13;12.20;81.50
9049;DHT22;4559;47.252;9.592;2022-12-29T14:06:38;12.20;81.90
9049;DHT22;4559;47.252;9.592;2022-12-29T14:11:55;12.10;82.80
9049;DHT22;4559;47.252;9.592;2022-12-29T14:14:28;12.00;83.50
9049;DHT22;4559;47.252;9.592;2022-12-29T14:17:11;11.90;84.40
9049;DHT22;4559;47.252;9.592;2022-12-29T14:19:42;11.90;84.00
9049;DHT22;4559;47.252;9.592;2022-12-29T14:22:09;11.80;85.00
9049;DHT22;4559;47.252;9.592;2022-12-29T14:29:50;11.50;86.20
9049;DHT22;4559;47.252;9.592;2022-12-29T14:34:52;11.50;88.30
9049;DHT22;4559;47.252;9.592;2022-12-29T14:37:34;11.40;89.20
9049;DHT22;4559;47.252;9.592;2022-12-29T14:42:43;11.30;90.30
9049;DHT22;4559;47.252;9.592;2022-12-29T14:47:39;11.10;91.00
9049;DHT22;4559;47.252;9.592;2022-12-29T14:52:52;11.10;91.50
9049;DHT22;4559;47.252;9.592;2022-12-29T14:55:45;11.00;91.50
9049;DHT22;4559;47.252;9.592;2022-12-29T14:58:29;10.90;92.10
9049;DHT22;4559;47.252;9.592;2022-12-29T15:00:57;10.90;92.40
9049;DHT22;4559;47.252;9.592;2022-12-29T15:03:28;10.90;92.70
9049;DHT22;4559;47.252;9.592;2022-12-29T15:05:56;10.70;92.60
9049;DHT22;4559;47.252;9.592;2022-12-29T15:08:29;10.70;93.00
9049;DHT22;4559;47.252;9.592;2022-12-29T15:11:00;10.70;93.20
9049;DHT22;4559;47.252;9.592;2022-12-29T15:13:40;10.70;93.10
9049;DHT22;4559;47.252;9.592;2022-12-29T15:16:30;10.60;92.60
9049;DHT22;4559;47.252;9.592;2022-12-29T15:18:57;10.50;92.60
9049;DHT22;4559;47.252;9.592;2022-12-29T15:21:26;10.50;92.90
9049;DHT22;4559;47.252;9.592;2022-12-29T15:23:52;10.50;93.00
9049;DHT22;4559;47.252;9.592;2022-12-29T15:26:18;10.40;93.20
9049;DHT22;4559;47.252;9.592;2022-12-29T15:28:49;10.40;93.70
9049;DHT22;4559;47.252;9.592;2022-12-29T15:31:24;10.40;93.90
9049;DHT22;4559;47.252;9.592;2022-12-29T15:33:53;10.30;94.00
9049;DHT22;4559;47.252;9.592;2022-12-29T15:36:27;10.20;94.00
9049;DHT22;4559;47.252;9.592;2022-12-29T15:38:53;10.20;94.20
9049;DHT22;4559;47.252;9.592;2022-12-29T15:46:33;10.20;94.20
9049;DHT22;4559;47.252;9.592;2022-12-29T15:48:58;10.10;94.30
9049;DHT22;4559;47.252;9.592;2022-12-29T15:51:35;10.10;94.20
9049;DHT22;4559;47.252;9.592;2022-12-29T15:54:02;10.00;94.60
9049;DHT22;4559;47.252;9.592;2022-12-29T15:56:29;10.00;94.70
9049;DHT22;4559;47.252;9.592;2022-12-29T15:58:55;10.00;94.90
9049;DHT22;4559;47.252;9.592;2022-12-29T16:01:31;10.00;95.00
9049;DHT22;4559;47.252;9.592;2022-12-29T16:04:04;10.00;94.70
9049;DHT22;4559;47.252;9.592;2022-12-29T16:06:35;9.90;95.30
9049;DHT22;4559;47.252;9.592;2022-12-29T16:09:04;9.90;95.50
9049;DHT22;4559;47.252;9.592;2022-12-29T16:11:41;9.90;96.10
9049;DHT22;4559;47.252;9.592;2022-12-29T16:14:15;9.80;95.90
9049;DHT22;4559;47.252;9.592;2022-12-29T16:16:43;9.80;95.70
9049;DHT22;4559;47.252;9.592;2022-12-29T16:19:23;9.70;95.40
9049;DHT22;4559;47.252;9.592;2022-12-29T16:21:50;9.70;95.40
9049;DHT22;4559;47.252;9.592;2022-12-29T16:24:18;9.70;94.70
9049;DHT22;4559;47.252;9.592;2022-12-29T16:26:49;9.70;93.60
9049;DHT22;4559;47.252;9.592;2022-12-29T16:29:16;9.80;94.10
9049;DHT22;4559;47.252;9.592;2022-12-29T16:32:01;9.80;94.30
9049;DHT22;4559;47.252;9.592;2022-12-29T16:34:33;9.80;94.50
9049;DHT22;4559;47.252;9.592;2022-12-29T16:37:01;9.80;94.70
9049;DHT22;4559;47.252;9.592;2022-12-29T16:39:38;9.80;94.80
9049;DHT22;4559;47.252;9.592;2022-12-29T16:48:19;9.70;94.70
9049;DHT22;4559;47.252;9.592;2022-12-29T16:50:45;9.70;95.10
9049;DHT22;4559;47.252;9.592;2022-12-29T16:53:24;9.60;95.10
9049;DHT22;4559;47.252;9.592;2022-12-29T16:55:54;9.50;95.30
9049;DHT22;4559;47.252;9.592;2022-12-29T16:58:24;9.40;95.20
9049;DHT22;4559;47.252;9.592;2022-12-29T17:00:56;9.40;95.20
9049;DHT22;4559;47.252;9.592;2022-12-29T17:03:30;9.40;94.90
9049;DHT22;4559;47.252;9.592;2022-12-29T17:05:56;9.40;95.00
9049;DHT22;4559;47.252;9.592;2022-12-29T17:08:22;9.40;95.00
9049;DHT22;4559;47.252;9.592;2022-12-29T17:10:52;9.40;95.20
9049;DHT22;4559;47.252;9.592;2022-12-29T17:13:37;9.40;95.40
9049;DHT22;4559;47.252;9.592;2022-12-29T17:16:04;9.30;95.40
9049;DHT22;4559;47.252;9.592;2022-12-29T17:18:32;9.20;95.40
9049;DHT22;4559;47.252;9.592;2022-12-29T17:20:58;9.20;95.50
9049;DHT22;4559;47.252;9.592;2022-12-29T17:23:24;9.20;95.60
9049;DHT22;4559;47.252;9.592;2022-12-29T17:25:49;9.20;95.80
9049;DHT22;4559;47.252;9.592;2022-12-29T17:28:21;9.10;95.80
9049;DHT22;4559;47.252;9.592;2022-12-29T17:30:48;9.10;95.80
9049;DHT22;4559;47.252;9.592;2022-12-29T17:33:16;9.10;96.20
9049;DHT22;4559;47.252;9.592;2022-12-29T17:35:42;9.10;96.30
9049;DHT22;4559;47.252;9.592;2022-12-29T17:40:45;9.00;96.40
9049;DHT22;4559;47.252;9.592;2022-12-29T17:43:13;9.00;96.30
9049;DHT22;4559;47.252;9.592;2022-12-29T17:45:40;9.00;96.50
9049;DHT22;4559;47.252;9.592;2022-12-29T17:48:16;9.00;96.60
9049;DHT22;4559;47.252;9.592;2022-12-29T17:50:43;9.00;96.60
9049;DHT22;4559;47.252;9.592;2022-12-29T17:53:21;9.00;96.70
9049;DHT22;4559;47.252;9.592;2022-12-29T17:55:47;9.00;96.80
9049;DHT22;4559;47.252;9.592;2022-12-29T17:58:26;8.90;96.90
9049;DHT22;4559;47.252;9.592;2022-12-29T18:00:55;8.80;97.20
9049;DHT22;4559;47.252;9.592;2022-12-29T18:03:34;8.80;97.30
9049;DHT22;4559;47.252;9.592;2022-12-29T18:06:01;8.80;97.30
9049;DHT22;4559;47.252;9.592;2022-12-29T18:08:27;8.80;97.40
9049;DHT22;4559;47.252;9.592;2022-12-29T18:10:55;8.80;97.60
9049;DHT22;4559;47.252;9.592;2022-12-29T18:15:51;8.80;97.90
9049;DHT22;4559;47.252;9.592;2022-12-29T18:18:19;8.70;98.20
9049;DHT22;4559;47.252;9.592;2022-12-29T18:20:46;8.70;98.40
9049;DHT22;4559;47.252;9.592;2022-12-29T18:26:24;8.60;98.50
9049;DHT22;4559;47.252;9.592;2022-12-29T18:28:52;8.60;98.60
9049;DHT22;4559;47.252;9.592;2022-12-29T18:31:29;8.60;98.80
9049;DHT22;4559;47.252;9.592;2022-12-29T18:33:56;8.50;98.90
9049;DHT22;4559;47.252;9.592;2022-12-29T18:36:23;8.50;99.00
9049;DHT22;4559;47.252;9.592;2022-12-29T18:38:49;8.50;99.00
9049;DHT22;4559;47.252;9.592;2022-12-29T18:41:19;8.50;99.20
9049;DHT22;4559;47.252;9.592;2022-12-29T18:43:45;8.40;99.20
9049;DHT22;4559;47.252;9.592;2022-12-29T18:46:11;8.30;99.40
9049;DHT22;4559;47.252;9.592;2022-12-29T18:48:38;8.30;99.50
9049;DHT22;4559;47.252;9.592;2022-12-29T18:51:04;8.40;99.90
9049;DHT22;4559;47.252;9.592;2022-12-29T18:53:30;8.30;99.70
9049;DHT22;4559;47.252;9.592;2022-12-29T18:55:57;8.30;99.80
9049;DHT22;4559;47.252;9.592;2022-12-29T18:58:23;8.30;99.90
9049;DHT22;4559;47.252;9.592;2022-12-29T19:00:49;8.20;99.90